sensor_id;sensor_type;location;lat;lon;timestamp;P1;durP1;ratioP1;P2;durP2;ratioP2
37299;SDS011;23184;51.902;12.836;2022-07-30T00:01:20;6.03;;;2.60;;
37299;SDS011;23184;51.902;12.836;2022-07-30T00:03:46;8.77;;;2.67;;
37299;SDS011;23184;51.902;12.836;2022-07-30T00:06:11;5.53;;;2.25;;
37299;SDS011;23184;51.902;12.836;2022-07-30T00:08:37;5.57;;;2.47;;
37299;SDS011;23184;51.902;12.836;2022-07-30T00:11:02;6.10;;;2.30;;
37299;SDS011;23184;51.902;12.836;2022-07-30T00:13:28;5.35;;;2.17;;
37299;SDS011;23184;51.902;12.836;2022-07-30T00:15:53;10.18;;;2.45;;
37299;SDS011;23184;51.902;12.836;2022-07-30T00:18:19;6.75;;;2.92;;
37299;SDS011;23184;51.902;12.836;2022-07-30T00:20:45;5.70;;;2.70;;
37299;SDS011;23184;51.902;12.836;2022-07-30T00:23:10;9.20;;;3.00;;
37299;SDS011;23184;51.902;12.836;2022-07-30T00:25:36;6.75;;;3.20;;
37299;SDS011;23184;51.902;12.836;2022-07-30T00:28:01;7.30;;;2.95;;
37299;SDS011;23184;51.902;12.836;2022-07-30T00:30:27;9.50;;;3.25;;
37299;SDS011;23184;51.902;12.836;2022-07-30T00:32:52;9.40;;;3.10;;
37299;SDS011;23184;51.902;12.836;2022-07-30T00:35:18;7.15;;;3.35;;
37299;SDS011;23184;51.902;12.836;2022-07-30T00:37:43;5.25;;;3.10;;
37299;SDS011;23184;51.902;12.836;2022-07-30T00:40:09;8.98;;;3.28;;
37299;SDS011;23184;51.902;12.836;2022-07-30T00:42:35;8.27;;;3.03;;
37299;SDS011;23184;51.902;12.836;2022-07-30T00:45:02;6.28;;;3.20;;
37299;SDS011;23184;51.902;12.836;2022-07-30T00:47:28;9.90;;;3.50;;
37299;SDS011;23184;51.902;12.836;2022-07-30T00:49:53;3.92;;;2.83;;
37299;SDS011;23184;51.902;12.836;2022-07-30T00:52:19;9.10;;;3.20;;
37299;SDS011;23184;51.902;12.836;2022-07-30T00:54:44;6.78;;;3.20;;
37299;SDS011;23184;51.902;12.836;2022-07-30T00:57:10;8.18;;;3.45;;
37299;SDS011;23184;51.902;12.836;2022-07-30T00:59:35;5.28;;;3.70;;
37299;SDS011;23184;51.902;12.836;2022-07-30T01:02:01;6.32;;;3.15;;
37299;SDS011;23184;51.902;12.836;2022-07-30T01:04:27;9.00;;;3.50;;
37299;SDS011;23184;51.902;12.836;2022-07-30T01:06:54;6.80;;;3.00;;
37299;SDS011;23184;51.902;12.836;2022-07-30T01:09:19;6.53;;;3.42;;
37299;SDS011;23184;51.902;12.836;2022-07-30T01:11:45;7.18;;;3.60;;
37299;SDS011;23184;51.902;12.836;2022-07-30T01:14:10;5.47;;;3.15;;
37299;SDS011;23184;51.902;12.836;2022-07-30T01:16:37;5.50;;;3.28;;
37299;SDS011;23184;51.902;12.836;2022-07-30T01:19:06;4.50;;;2.95;;
37299;SDS011;23184;51.902;12.836;2022-07-30T01:21:59;7.53;;;3.05;;
37299;SDS011;23184;51.902;12.836;2022-07-30T01:24:41;4.55;;;3.00;;
37299;SDS011;23184;51.902;12.836;2022-07-30T01:27:11;4.65;;;2.88;;
37299;SDS011;23184;51.902;12.836;2022-07-30T01:29:37;4.30;;;2.63;;
37299;SDS011;23184;51.902;12.836;2022-07-30T01:32:05;4.72;;;3.05;;
37299;SDS011;23184;51.902;12.836;2022-07-30T01:34:33;7.25;;;2.80;;
37299;SDS011;23184;51.902;12.836;2022-07-30T01:37:00;5.80;;;2.90;;
37299;SDS011;23184;51.902;12.836;2022-07-30T01:39:27;7.95;;;3.35;;
37299;SDS011;23184;51.902;12.836;2022-07-30T01:41:54;3.80;;;2.65;;
37299;SDS011;23184;51.902;12.836;2022-07-30T01:44:21;5.32;;;3.10;;
37299;SDS011;23184;51.902;12.836;2022-07-30T01:46:48;8.07;;;3.00;;
37299;SDS011;23184;51.902;12.836;2022-07-30T01:49:15;7.80;;;3.22;;
37299;SDS011;23184;51.902;12.836;2022-07-30T01:51:42;5.63;;;2.83;;
37299;SDS011;23184;51.902;12.836;2022-07-30T01:54:09;6.97;;;2.90;;
37299;SDS011;23184;51.902;12.836;2022-07-30T01:56:37;6.72;;;2.90;;
37299;SDS011;23184;51.902;12.836;2022-07-30T01:59:04;4.65;;;2.60;;
37299;SDS011;23184;51.902;12.836;2022-07-30T02:01:32;5.88;;;3.13;;
37299;SDS011;23184;51.902;12.836;2022-07-30T02:03:59;6.95;;;3.60;;
37299;SDS011;23184;51.902;12.836;2022-07-30T02:06:31;7.38;;;3.35;;
37299;SDS011;23184;51.902;12.836;2022-07-30T02:09:03;6.10;;;2.97;;
37299;SDS011;23184;51.902;12.836;2022-07-30T02:11:30;5.63;;;2.92;;
37299;SDS011;23184;51.902;12.836;2022-07-30T02:14:20;4.68;;;2.97;;
37299;SDS011;23184;51.902;12.836;2022-07-30T02:16:49;8.70;;;3.50;;
37299;SDS011;23184;51.902;12.836;2022-07-30T02:19:18;5.20;;;3.38;;
37299;SDS011;23184;51.902;12.836;2022-07-30T02:21:45;6.97;;;3.53;;
37299;SDS011;23184;51.902;12.836;2022-07-30T02:24:13;4.50;;;3.50;;
37299;SDS011;23184;51.902;12.836;2022-07-30T02:26:43;5.20;;;2.75;;
37299;SDS011;23184;51.902;12.836;2022-07-30T02:29:13;7.97;;;2.85;;
37299;SDS011;23184;51.902;12.836;2022-07-30T02:31:42;4.68;;;3.00;;
37299;SDS011;23184;51.902;12.836;2022-07-30T02:34:08;5.53;;;3.30;;
37299;SDS011;23184;51.902;12.836;2022-07-30T02:36:36;7.28;;;3.47;;
37299;SDS011;23184;51.902;12.836;2022-07-30T02:39:03;5.53;;;3.40;;
37299;SDS011;23184;51.902;12.836;2022-07-30T02:41:29;4.47;;;3.25;;
37299;SDS011;23184;51.902;12.836;2022-07-30T02:43:56;7.20;;;3.58;;
37299;SDS011;23184;51.902;12.836;2022-07-30T02:46:23;6.85;;;3.63;;
37299;SDS011;23184;51.902;12.836;2022-07-30T02:48:49;7.57;;;3.47;;
37299;SDS011;23184;51.902;12.836;2022-07-30T02:51:17;5.25;;;3.10;;
37299;SDS011;23184;51.902;12.836;2022-07-30T02:53:45;6.40;;;3.08;;
37299;SDS011;23184;51.902;12.836;2022-07-30T02:56:12;8.15;;;3.50;;
37299;SDS011;23184;51.902;12.836;2022-07-30T02:58:40;5.13;;;3.15;;
37299;SDS011;23184;51.902;12.836;2022-07-30T03:01:07;7.13;;;3.65;;
37299;SDS011;23184;51.902;12.836;2022-07-30T03:03:35;8.75;;;4.53;;
37299;SDS011;23184;51.902;12.836;2022-07-30T03:06:01;7.15;;;3.47;;
37299;SDS011;23184;51.902;12.836;2022-07-30T03:08:29;6.50;;;3.60;;
37299;SDS011;23184;51.902;12.836;2022-07-30T03:10:56;8.27;;;3.58;;
37299;SDS011;23184;51.902;12.836;2022-07-30T03:13:22;4.22;;;3.30;;
37299;SDS011;23184;51.902;12.836;2022-07-30T03:15:49;8.10;;;3.28;;
37299;SDS011;23184;51.902;12.836;2022-07-30T03:18:16;6.43;;;3.30;;
37299;SDS011;23184;51.902;12.836;2022-07-30T03:20:46;7.25;;;3.70;;
37299;SDS011;23184;51.902;12.836;2022-07-30T03:23:15;5.85;;;3.30;;
37299;SDS011;23184;51.902;12.836;2022-07-30T03:25:43;7.97;;;3.33;;
37299;SDS011;23184;51.902;12.836;2022-07-30T03:28:13;3.97;;;3.38;;
37299;SDS011;23184;51.902;12.836;2022-07-30T03:30:39;6.68;;;3.50;;
37299;SDS011;23184;51.902;12.836;2022-07-30T03:33:07;5.32;;;3.65;;
37299;SDS011;23184;51.902;12.836;2022-07-30T03:35:34;10.05;;;3.47;;
37299;SDS011;23184;51.902;12.836;2022-07-30T03:38:00;5.18;;;3.17;;
37299;SDS011;23184;51.902;12.836;2022-07-30T03:40:26;4.90;;;3.20;;
37299;SDS011;23184;51.902;12.836;2022-07-30T03:42:53;4.70;;;3.13;;
37299;SDS011;23184;51.902;12.836;2022-07-30T03:45:19;8.60;;;4.18;;
37299;SDS011;23184;51.902;12.836;2022-07-30T03:47:45;5.30;;;3.08;;
37299;SDS011;23184;51.902;12.836;2022-07-30T03:50:11;10.98;;;3.60;;
37299;SDS011;23184;51.902;12.836;2022-07-30T03:52:39;4.47;;;3.40;;
37299;SDS011;23184;51.902;12.836;2022-07-30T03:55:05;7.35;;;3.47;;
37299;SDS011;23184;51.902;12.836;2022-07-30T03:57:33;7.32;;;3.65;;
37299;SDS011;23184;51.902;12.836;2022-07-30T03:59:59;6.35;;;3.30;;
37299;SDS011;23184;51.902;12.836;2022-07-30T04:02:24;7.25;;;3.47;;
37299;SDS011;23184;51.902;12.836;2022-07-30T04:04:50;7.07;;;3.78;;
37299;SDS011;23184;51.902;12.836;2022-07-30T04:07:16;6.10;;;2.95;;
37299;SDS011;23184;51.902;12.836;2022-07-30T04:09:41;6.47;;;3.28;;
37299;SDS011;23184;51.902;12.836;2022-07-30T04:12:07;6.13;;;3.58;;
37299;SDS011;23184;51.902;12.836;2022-07-30T04:14:40;6.03;;;3.35;;
37299;SDS011;23184;51.902;12.836;2022-07-30T04:17:11;7.65;;;3.47;;
37299;SDS011;23184;51.902;12.836;2022-07-30T04:19:55;4.85;;;3.20;;
37299;SDS011;23184;51.902;12.836;2022-07-30T04:22:27;6.22;;;3.58;;
37299;SDS011;23184;51.902;12.836;2022-07-30T04:24:57;4.78;;;3.30;;
37299;SDS011;23184;51.902;12.836;2022-07-30T04:27:27;5.07;;;3.55;;
37299;SDS011;23184;51.902;12.836;2022-07-30T04:29:54;5.75;;;3.45;;
37299;SDS011;23184;51.902;12.836;2022-07-30T04:32:20;7.10;;;4.10;;
37299;SDS011;23184;51.902;12.836;2022-07-30T04:34:46;6.35;;;3.45;;
37299;SDS011;23184;51.902;12.836;2022-07-30T04:37:14;7.93;;;3.35;;
37299;SDS011;23184;51.902;12.836;2022-07-30T04:39:44;6.55;;;3.60;;
37299;SDS011;23184;51.902;12.836;2022-07-30T04:42:10;7.47;;;3.72;;
37299;SDS011;23184;51.902;12.836;2022-07-30T04:44:36;8.45;;;3.97;;
37299;SDS011;23184;51.902;12.836;2022-07-30T04:47:02;4.38;;;3.08;;
37299;SDS011;23184;51.902;12.836;2022-07-30T04:49:28;6.03;;;3.50;;
37299;SDS011;23184;51.902;12.836;2022-07-30T04:51:55;10.10;;;4.28;;
37299;SDS011;23184;51.902;12.836;2022-07-30T04:54:21;6.75;;;3.70;;
37299;SDS011;23184;51.902;12.836;2022-07-30T04:56:48;7.88;;;3.50;;
37299;SDS011;23184;51.902;12.836;2022-07-30T04:59:15;9.13;;;3.90;;
37299;SDS011;23184;51.902;12.836;2022-07-30T05:01:41;8.05;;;3.42;;
37299;SDS011;23184;51.902;12.836;2022-07-30T05:04:10;7.40;;;4.00;;
37299;SDS011;23184;51.902;12.836;2022-07-30T05:06:37;6.07;;;3.50;;
37299;SDS011;23184;51.902;12.836;2022-07-30T05:09:05;8.48;;;4.10;;
37299;SDS011;23184;51.902;12.836;2022-07-30T05:11:31;6.82;;;3.50;;
37299;SDS011;23184;51.902;12.836;2022-07-30T05:13:57;9.35;;;3.88;;
37299;SDS011;23184;51.902;12.836;2022-07-30T05:16:22;5.22;;;3.45;;
37299;SDS011;23184;51.902;12.836;2022-07-30T05:18:48;6.82;;;3.92;;
37299;SDS011;23184;51.902;12.836;2022-07-30T05:21:14;5.28;;;3.63;;
37299;SDS011;23184;51.902;12.836;2022-07-30T05:23:40;7.38;;;4.07;;
37299;SDS011;23184;51.902;12.836;2022-07-30T05:26:06;7.00;;;4.30;;
37299;SDS011;23184;51.902;12.836;2022-07-30T05:28:31;8.13;;;4.50;;
37299;SDS011;23184;51.902;12.836;2022-07-30T05:30:57;8.27;;;4.25;;
37299;SDS011;23184;51.902;12.836;2022-07-30T05:33:22;5.72;;;4.20;;
37299;SDS011;23184;51.902;12.836;2022-07-30T05:35:48;6.85;;;4.35;;
37299;SDS011;23184;51.902;12.836;2022-07-30T05:38:14;12.57;;;4.50;;
37299;SDS011;23184;51.902;12.836;2022-07-30T05:40:41;7.50;;;4.68;;
37299;SDS011;23184;51.902;12.836;2022-07-30T05:43:06;8.10;;;4.85;;
37299;SDS011;23184;51.902;12.836;2022-07-30T05:45:32;6.38;;;4.63;;
37299;SDS011;23184;51.902;12.836;2022-07-30T05:47:57;8.30;;;4.60;;
37299;SDS011;23184;51.902;12.836;2022-07-30T05:50:23;9.15;;;4.68;;
37299;SDS011;23184;51.902;12.836;2022-07-30T05:52:49;7.72;;;4.65;;
37299;SDS011;23184;51.902;12.836;2022-07-30T05:55:14;7.85;;;4.60;;
37299;SDS011;23184;51.902;12.836;2022-07-30T05:57:40;10.80;;;4.90;;
37299;SDS011;23184;51.902;12.836;2022-07-30T06:00:06;9.40;;;5.30;;
37299;SDS011;23184;51.902;12.836;2022-07-30T06:02:33;7.03;;;4.95;;
37299;SDS011;23184;51.902;12.836;2022-07-30T06:04:59;13.57;;;5.45;;
37299;SDS011;23184;51.902;12.836;2022-07-30T06:07:25;6.30;;;4.45;;
37299;SDS011;23184;51.902;12.836;2022-07-30T06:09:51;10.38;;;4.40;;
37299;SDS011;23184;51.902;12.836;2022-07-30T06:12:16;8.07;;;4.63;;
37299;SDS011;23184;51.902;12.836;2022-07-30T06:14:42;5.60;;;4.50;;
37299;SDS011;23184;51.902;12.836;2022-07-30T06:17:08;6.47;;;4.18;;
37299;SDS011;23184;51.902;12.836;2022-07-30T06:19:34;9.13;;;4.85;;
37299;SDS011;23184;51.902;12.836;2022-07-30T06:21:59;6.78;;;4.63;;
37299;SDS011;23184;51.902;12.836;2022-07-30T06:24:25;7.10;;;4.13;;
37299;SDS011;23184;51.902;12.836;2022-07-30T06:26:50;9.13;;;4.65;;
37299;SDS011;23184;51.902;12.836;2022-07-30T06:29:16;7.90;;;3.90;;
37299;SDS011;23184;51.902;12.836;2022-07-30T06:31:42;7.10;;;4.45;;
37299;SDS011;23184;51.902;12.836;2022-07-30T06:34:07;6.65;;;4.82;;
37299;SDS011;23184;51.902;12.836;2022-07-30T06:36:33;8.20;;;4.65;;
37299;SDS011;23184;51.902;12.836;2022-07-30T06:38:58;5.57;;;3.42;;
37299;SDS011;23184;51.902;12.836;2022-07-30T06:41:24;6.03;;;3.67;;
37299;SDS011;23184;51.902;12.836;2022-07-30T06:43:49;5.28;;;3.80;;
37299;SDS011;23184;51.902;12.836;2022-07-30T06:46:15;6.60;;;4.05;;
37299;SDS011;23184;51.902;12.836;2022-07-30T06:48:41;8.20;;;3.65;;
37299;SDS011;23184;51.902;12.836;2022-07-30T06:51:06;11.60;;;3.78;;
37299;SDS011;23184;51.902;12.836;2022-07-30T06:53:32;6.30;;;3.60;;
37299;SDS011;23184;51.902;12.836;2022-07-30T06:55:58;9.07;;;3.70;;
37299;SDS011;23184;51.902;12.836;2022-07-30T06:58:24;7.75;;;3.33;;
37299;SDS011;23184;51.902;12.836;2022-07-30T07:00:49;4.85;;;2.92;;
37299;SDS011;23184;51.902;12.836;2022-07-30T07:03:15;5.43;;;3.42;;
37299;SDS011;23184;51.902;12.836;2022-07-30T07:05:40;4.72;;;3.85;;
37299;SDS011;23184;51.902;12.836;2022-07-30T07:08:06;6.75;;;4.00;;
37299;SDS011;23184;51.902;12.836;2022-07-30T07:10:32;8.45;;;4.53;;
37299;SDS011;23184;51.902;12.836;2022-07-30T07:12:57;7.30;;;3.95;;
37299;SDS011;23184;51.902;12.836;2022-07-30T07:15:24;3.92;;;3.35;;
37299;SDS011;23184;51.902;12.836;2022-07-30T07:17:50;6.07;;;4.13;;
37299;SDS011;23184;51.902;12.836;2022-07-30T07:20:15;10.23;;;4.28;;
37299;SDS011;23184;51.902;12.836;2022-07-30T07:22:41;5.63;;;3.65;;
37299;SDS011;23184;51.902;12.836;2022-07-30T07:25:07;8.15;;;4.22;;
37299;SDS011;23184;51.902;12.836;2022-07-30T07:27:33;6.13;;;3.88;;
37299;SDS011;23184;51.902;12.836;2022-07-30T07:29:58;4.72;;;3.78;;
37299;SDS011;23184;51.902;12.836;2022-07-30T07:32:24;6.40;;;3.83;;
37299;SDS011;23184;51.902;12.836;2022-07-30T07:34:49;3.95;;;2.92;;
37299;SDS011;23184;51.902;12.836;2022-07-30T07:37:15;4.40;;;3.72;;
37299;SDS011;23184;51.902;12.836;2022-07-30T07:39:41;7.60;;;3.67;;
37299;SDS011;23184;51.902;12.836;2022-07-30T07:42:06;5.90;;;3.63;;
37299;SDS011;23184;51.902;12.836;2022-07-30T07:44:32;4.63;;;3.30;;
37299;SDS011;23184;51.902;12.836;2022-07-30T07:46:57;5.45;;;3.45;;
37299;SDS011;23184;51.902;12.836;2022-07-30T07:49:23;4.88;;;2.85;;
37299;SDS011;23184;51.902;12.836;2022-07-30T07:51:48;4.70;;;3.20;;
37299;SDS011;23184;51.902;12.836;2022-07-30T07:54:14;4.85;;;2.80;;
37299;SDS011;23184;51.902;12.836;2022-07-30T07:56:40;5.55;;;2.70;;
37299;SDS011;23184;51.902;12.836;2022-07-30T07:59:06;6.30;;;2.70;;
37299;SDS011;23184;51.902;12.836;2022-07-30T08:01:32;5.65;;;3.08;;
37299;SDS011;23184;51.902;12.836;2022-07-30T08:03:58;4.65;;;2.72;;
37299;SDS011;23184;51.902;12.836;2022-07-30T08:06:23;3.92;;;2.67;;
37299;SDS011;23184;51.902;12.836;2022-07-30T08:08:49;5.13;;;2.60;;
37299;SDS011;23184;51.902;12.836;2022-07-30T08:11:14;6.95;;;2.95;;
37299;SDS011;23184;51.902;12.836;2022-07-30T08:13:40;8.30;;;3.45;;
37299;SDS011;23184;51.902;12.836;2022-07-30T08:16:05;5.05;;;3.10;;
37299;SDS011;23184;51.902;12.836;2022-07-30T08:18:34;3.72;;;2.50;;
37299;SDS011;23184;51.902;12.836;2022-07-30T08:21:00;3.47;;;2.58;;
37299;SDS011;23184;51.902;12.836;2022-07-30T08:23:27;4.10;;;2.75;;
37299;SDS011;23184;51.902;12.836;2022-07-30T08:25:52;7.03;;;3.30;;
37299;SDS011;23184;51.902;12.836;2022-07-30T08:28:18;4.55;;;2.60;;
37299;SDS011;23184;51.902;12.836;2022-07-30T08:30:43;6.47;;;2.72;;
37299;SDS011;23184;51.902;12.836;2022-07-30T08:33:09;2.58;;;2.05;;
37299;SDS011;23184;51.902;12.836;2022-07-30T08:35:34;4.68;;;2.20;;
37299;SDS011;23184;51.902;12.836;2022-07-30T08:38:00;5.25;;;2.55;;
37299;SDS011;23184;51.902;12.836;2022-07-30T08:40:25;4.88;;;2.78;;
37299;SDS011;23184;51.902;12.836;2022-07-30T08:42:51;4.50;;;2.50;;
37299;SDS011;23184;51.902;12.836;2022-07-30T08:45:17;5.20;;;2.58;;
37299;SDS011;23184;51.902;12.836;2022-07-30T08:47:44;4.13;;;2.30;;
37299;SDS011;23184;51.902;12.836;2022-07-30T08:50:11;7.13;;;2.55;;
37299;SDS011;23184;51.902;12.836;2022-07-30T08:52:38;3.50;;;2.50;;
37299;SDS011;23184;51.902;12.836;2022-07-30T08:55:04;4.65;;;2.40;;
37299;SDS011;23184;51.902;12.836;2022-07-30T08:57:32;3.17;;;2.45;;
37299;SDS011;23184;51.902;12.836;2022-07-30T08:59:58;3.50;;;2.55;;
37299;SDS011;23184;51.902;12.836;2022-07-30T09:02:24;16.60;;;2.92;;
37299;SDS011;23184;51.902;12.836;2022-07-30T09:04:50;3.92;;;2.40;;
37299;SDS011;23184;51.902;12.836;2022-07-30T09:07:16;6.25;;;2.45;;
37299;SDS011;23184;51.902;12.836;2022-07-30T09:09:42;5.18;;;2.55;;
37299;SDS011;23184;51.902;12.836;2022-07-30T09:15:14;3.78;;;2.30;;
37299;SDS011;23184;51.902;12.836;2022-07-30T09:17:51;6.03;;;2.47;;
37299;SDS011;23184;51.902;12.836;2022-07-30T09:20:20;8.13;;;2.78;;
37299;SDS011;23184;51.902;12.836;2022-07-30T09:22:48;4.85;;;2.50;;
37299;SDS011;23184;51.902;12.836;2022-07-30T09:25:23;6.93;;;2.60;;
37299;SDS011;23184;51.902;12.836;2022-07-30T09:27:56;6.97;;;2.38;;
37299;SDS011;23184;51.902;12.836;2022-07-30T09:30:22;7.30;;;2.78;;
37299;SDS011;23184;51.902;12.836;2022-07-30T09:32:48;5.65;;;2.60;;
37299;SDS011;23184;51.902;12.836;2022-07-30T09:35:16;3.88;;;2.30;;
37299;SDS011;23184;51.902;12.836;2022-07-30T09:37:42;8.05;;;2.95;;
37299;SDS011;23184;51.902;12.836;2022-07-30T09:40:15;5.47;;;2.38;;
37299;SDS011;23184;51.902;12.836;2022-07-30T09:42:42;8.20;;;2.60;;
37299;SDS011;23184;51.902;12.836;2022-07-30T09:45:12;5.60;;;2.33;;
37299;SDS011;23184;51.902;12.836;2022-07-30T09:47:42;4.50;;;2.00;;
37299;SDS011;23184;51.902;12.836;2022-07-30T09:52:40;5.55;;;2.25;;
37299;SDS011;23184;51.902;12.836;2022-07-30T09:55:07;3.67;;;2.22;;
37299;SDS011;23184;51.902;12.836;2022-07-30T09:57:34;7.50;;;2.55;;
37299;SDS011;23184;51.902;12.836;2022-07-30T10:00:15;6.07;;;2.30;;
37299;SDS011;23184;51.902;12.836;2022-07-30T10:02:43;2.63;;;2.10;;
37299;SDS011;23184;51.902;12.836;2022-07-30T10:05:13;6.38;;;2.30;;
37299;SDS011;23184;51.902;12.836;2022-07-30T10:07:45;5.47;;;2.00;;
37299;SDS011;23184;51.902;12.836;2022-07-30T10:10:16;8.48;;;2.50;;
37299;SDS011;23184;51.902;12.836;2022-07-30T10:12:44;5.82;;;2.20;;
37299;SDS011;23184;51.902;12.836;2022-07-30T10:15:10;4.15;;;2.30;;
37299;SDS011;23184;51.902;12.836;2022-07-30T10:17:38;5.97;;;2.10;;
37299;SDS011;23184;51.902;12.836;2022-07-30T10:20:08;3.85;;;2.03;;
37299;SDS011;23184;51.902;12.836;2022-07-30T10:22:35;7.40;;;1.92;;
37299;SDS011;23184;51.902;12.836;2022-07-30T10:25:03;5.35;;;2.30;;
37299;SDS011;23184;51.902;12.836;2022-07-30T10:27:29;6.63;;;2.25;;
37299;SDS011;23184;51.902;12.836;2022-07-30T10:29:55;7.90;;;1.80;;
37299;SDS011;23184;51.902;12.836;2022-07-30T10:32:22;10.20;;;2.33;;
37299;SDS011;23184;51.902;12.836;2022-07-30T10:34:50;10.43;;;2.50;;
37299;SDS011;23184;51.902;12.836;2022-07-30T10:37:16;9.30;;;1.80;;
37299;SDS011;23184;51.902;12.836;2022-07-30T10:43:01;5.35;;;1.80;;
37299;SDS011;23184;51.902;12.836;2022-07-30T10:45:54;7.75;;;1.65;;
37299;SDS011;23184;51.902;12.836;2022-07-30T10:48:37;3.95;;;1.70;;
37299;SDS011;23184;51.902;12.836;2022-07-30T10:51:03;6.03;;;1.50;;
37299;SDS011;23184;51.902;12.836;2022-07-30T10:53:36;4.25;;;1.75;;
37299;SDS011;23184;51.902;12.836;2022-07-30T11:02:12;6.23;;;1.67;;
37299;SDS011;23184;51.902;12.836;2022-07-30T11:06:42;3.55;;;1.60;;
37299;SDS011;23184;51.902;12.836;2022-07-30T11:12:02;8.25;;;2.00;;
37299;SDS011;23184;51.902;12.836;2022-07-30T11:22:35;5.47;;;1.85;;
37299;SDS011;23184;51.902;12.836;2022-07-30T11:25:08;4.97;;;1.90;;
37299;SDS011;23184;51.902;12.836;2022-07-30T11:27:54;2.25;;;1.55;;
37299;SDS011;23184;51.902;12.836;2022-07-30T11:32:46;4.70;;;1.52;;
37299;SDS011;23184;51.902;12.836;2022-07-30T11:35:26;2.92;;;1.35;;
37299;SDS011;23184;51.902;12.836;2022-07-30T11:37:56;5.90;;;1.50;;
37299;SDS011;23184;51.902;12.836;2022-07-30T11:43:14;7.05;;;1.70;;
37299;SDS011;23184;51.902;12.836;2022-07-30T11:45:49;6.05;;;1.63;;
37299;SDS011;23184;51.902;12.836;2022-07-30T11:48:37;11.63;;;1.90;;
37299;SDS011;23184;51.902;12.836;2022-07-30T11:51:04;6.38;;;1.70;;
37299;SDS011;23184;51.902;12.836;2022-07-30T11:53:29;6.72;;;3.28;;
37299;SDS011;23184;51.902;12.836;2022-07-30T11:55:56;6.00;;;4.13;;
37299;SDS011;23184;51.902;12.836;2022-07-30T12:01:03;11.38;;;4.72;;
37299;SDS011;23184;51.902;12.836;2022-07-30T12:03:30;11.43;;;5.10;;
37299;SDS011;23184;51.902;12.836;2022-07-30T12:06:05;9.32;;;5.00;;
37299;SDS011;23184;51.902;12.836;2022-07-30T12:08:40;24.38;;;5.72;;
37299;SDS011;23184;51.902;12.836;2022-07-30T12:11:09;7.00;;;4.82;;
37299;SDS011;23184;51.902;12.836;2022-07-30T12:13:36;7.20;;;4.82;;
37299;SDS011;23184;51.902;12.836;2022-07-30T12:16:06;11.05;;;5.70;;
37299;SDS011;23184;51.902;12.836;2022-07-30T12:18:33;9.95;;;4.85;;
37299;SDS011;23184;51.902;12.836;2022-07-30T12:21:03;7.68;;;5.35;;
37299;SDS011;23184;51.902;12.836;2022-07-30T12:23:32;14.80;;;4.95;;
37299;SDS011;23184;51.902;12.836;2022-07-30T12:26:00;11.27;;;5.43;;
37299;SDS011;23184;51.902;12.836;2022-07-30T12:28:28;11.25;;;5.30;;
37299;SDS011;23184;51.902;12.836;2022-07-30T12:30:56;8.90;;;5.22;;
37299;SDS011;23184;51.902;12.836;2022-07-30T12:33:22;9.80;;;5.13;;
37299;SDS011;23184;51.902;12.836;2022-07-30T12:35:49;13.35;;;5.07;;
37299;SDS011;23184;51.902;12.836;2022-07-30T12:40:58;8.15;;;4.72;;
37299;SDS011;23184;51.902;12.836;2022-07-30T12:46:23;10.25;;;5.82;;
37299;SDS011;23184;51.902;12.836;2022-07-30T12:51:21;6.93;;;4.97;;
37299;SDS011;23184;51.902;12.836;2022-07-30T12:53:48;10.85;;;5.20;;
37299;SDS011;23184;51.902;12.836;2022-07-30T12:56:16;13.63;;;5.68;;
37299;SDS011;23184;51.902;12.836;2022-07-30T12:58:43;7.85;;;4.97;;
37299;SDS011;23184;51.902;12.836;2022-07-30T13:01:09;11.18;;;4.32;;
37299;SDS011;23184;51.902;12.836;2022-07-30T13:03:35;10.85;;;4.53;;
37299;SDS011;23184;51.902;12.836;2022-07-30T13:06:11;7.75;;;4.53;;
37299;SDS011;23184;51.902;12.836;2022-07-30T13:11:09;6.80;;;4.72;;
37299;SDS011;23184;51.902;12.836;2022-07-30T13:13:34;7.47;;;5.00;;
37299;SDS011;23184;51.902;12.836;2022-07-30T13:16:02;8.32;;;4.20;;
37299;SDS011;23184;51.902;12.836;2022-07-30T13:18:29;9.80;;;4.45;;
37299;SDS011;23184;51.902;12.836;2022-07-30T13:20:56;5.18;;;4.28;;
37299;SDS011;23184;51.902;12.836;2022-07-30T13:23:23;8.48;;;3.67;;
37299;SDS011;23184;51.902;12.836;2022-07-30T13:25:49;9.45;;;4.50;;
37299;SDS011;23184;51.902;12.836;2022-07-30T13:28:15;14.10;;;4.65;;
37299;SDS011;23184;51.902;12.836;2022-07-30T13:30:41;5.72;;;3.90;;
37299;SDS011;23184;51.902;12.836;2022-07-30T13:33:06;7.72;;;4.10;;
37299;SDS011;23184;51.902;12.836;2022-07-30T13:35:32;6.90;;;4.07;;
37299;SDS011;23184;51.902;12.836;2022-07-30T13:37:59;6.50;;;3.15;;
37299;SDS011;23184;51.902;12.836;2022-07-30T13:40:25;8.63;;;3.20;;
37299;SDS011;23184;51.902;12.836;2022-07-30T13:42:51;7.97;;;3.63;;
37299;SDS011;23184;51.902;12.836;2022-07-30T13:45:17;7.63;;;3.97;;
37299;SDS011;23184;51.902;12.836;2022-07-30T13:47:42;11.02;;;3.78;;
37299;SDS011;23184;51.902;12.836;2022-07-30T13:50:08;6.97;;;3.53;;
37299;SDS011;23184;51.902;12.836;2022-07-30T13:52:34;7.45;;;3.50;;
37299;SDS011;23184;51.902;12.836;2022-07-30T13:54:59;8.18;;;3.55;;
37299;SDS011;23184;51.902;12.836;2022-07-30T13:57:25;5.20;;;3.60;;
37299;SDS011;23184;51.902;12.836;2022-07-30T13:59:50;6.80;;;3.72;;
37299;SDS011;23184;51.902;12.836;2022-07-30T14:02:16;6.00;;;3.28;;
37299;SDS011;23184;51.902;12.836;2022-07-30T14:04:42;6.50;;;3.45;;
37299;SDS011;23184;51.902;12.836;2022-07-30T14:07:07;7.45;;;4.05;;
37299;SDS011;23184;51.902;12.836;2022-07-30T14:09:33;5.90;;;3.85;;
37299;SDS011;23184;51.902;12.836;2022-07-30T14:11:58;10.10;;;4.70;;
37299;SDS011;23184;51.902;12.836;2022-07-30T14:14:24;8.23;;;4.38;;
37299;SDS011;23184;51.902;12.836;2022-07-30T14:16:49;6.43;;;4.50;;
37299;SDS011;23184;51.902;12.836;2022-07-30T14:19:16;8.38;;;4.72;;
37299;SDS011;23184;51.902;12.836;2022-07-30T14:21:42;8.20;;;3.88;;
37299;SDS011;23184;51.902;12.836;2022-07-30T14:24:08;8.73;;;4.85;;
37299;SDS011;23184;51.902;12.836;2022-07-30T14:26:35;10.98;;;5.13;;
37299;SDS011;23184;51.902;12.836;2022-07-30T14:29:01;9.60;;;4.55;;
37299;SDS011;23184;51.902;12.836;2022-07-30T14:31:27;8.07;;;4.30;;
37299;SDS011;23184;51.902;12.836;2022-07-30T14:33:53;8.70;;;4.93;;
37299;SDS011;23184;51.902;12.836;2022-07-30T14:36:18;12.32;;;5.75;;
37299;SDS011;23184;51.902;12.836;2022-07-30T14:38:44;9.45;;;5.22;;
37299;SDS011;23184;51.902;12.836;2022-07-30T14:41:09;9.73;;;5.30;;
37299;SDS011;23184;51.902;12.836;2022-07-30T14:43:35;7.40;;;4.57;;
37299;SDS011;23184;51.902;12.836;2022-07-30T14:46:00;10.70;;;5.15;;
37299;SDS011;23184;51.902;12.836;2022-07-30T14:48:26;8.52;;;5.45;;
37299;SDS011;23184;51.902;12.836;2022-07-30T14:50:51;13.48;;;5.63;;
37299;SDS011;23184;51.902;12.836;2022-07-30T14:53:17;9.18;;;5.40;;
37299;SDS011;23184;51.902;12.836;2022-07-30T14:55:42;11.43;;;5.45;;
37299;SDS011;23184;51.902;12.836;2022-07-30T14:58:07;11.57;;;5.63;;
37299;SDS011;23184;51.902;12.836;2022-07-30T15:00:33;10.93;;;6.30;;
37299;SDS011;23184;51.902;12.836;2022-07-30T15:02:59;11.38;;;6.38;;
37299;SDS011;23184;51.902;12.836;2022-07-30T15:05:25;11.85;;;6.60;;
37299;SDS011;23184;51.902;12.836;2022-07-30T15:07:50;13.27;;;7.28;;
37299;SDS011;23184;51.902;12.836;2022-07-30T15:10:16;16.75;;;8.13;;
37299;SDS011;23184;51.902;12.836;2022-07-30T15:12:41;10.95;;;7.78;;
37299;SDS011;23184;51.902;12.836;2022-07-30T15:15:07;13.02;;;7.05;;
37299;SDS011;23184;51.902;12.836;2022-07-30T15:17:33;10.23;;;6.10;;
37299;SDS011;23184;51.902;12.836;2022-07-30T15:19:59;6.95;;;5.00;;